sensor_id;sensor_type;location;lat;lon;timestamp;temperature;humidity
47921;DHT22;33686;48.770;9.186;2022-07-06T04:14:07;17.60;99.40
47921;DHT22;33686;48.770;9.186;2022-07-06T04:16:33;17.50;99.40
47921;DHT22;33686;48.770;9.186;2022-07-06T04:18:59;17.40;99.70
47921;DHT22;33686;48.770;9.186;2022-07-06T04:21:24;17.50;99.90
47921;DHT22;33686;48.770;9.186;2022-07-06T04:23:50;17.50;99.90
47921;DHT22;33686;48.770;9.186;2022-07-06T04:26:16;17.50;99.90
47921;DHT22;33686;48.770;9.186;2022-07-06T04:28:41;17.30;99.90
47921;DHT22;33686;48.770;9.186;2022-07-06T04:31:08;17.50;99.90
47921;DHT22;33686;48.770;9.186;2022-07-06T04:33:34;18.20;99.30
47921;DHT22;33686;48.770;9.186;2022-07-06T04:36:00;18.70;98.60
47921;DHT22;33686;48.770;9.186;2022-07-06T04:38:34;19.00;98.10
47921;DHT22;33686;48.770;9.186;2022-07-06T04:41:04;19.50;97.30
47921;DHT22;33686;48.770;9.186;2022-07-06T04:43:29;20.00;96.50
47921;DHT22;33686;48.770;9.186;2022-07-06T04:45:55;20.30;96.10
47921;DHT22;33686;48.770;9.186;2022-07-06T04:48:20;20.50;95.70
47921;DHT22;33686;48.770;9.186;2022-07-06T04:50:46;20.50;95.90
47921;DHT22;33686;48.770;9.186;2022-07-06T04:53:18;20.90;95.10
47921;DHT22;33686;48.770;9.186;2022-07-06T04:55:44;21.40;94.60
47921;DHT22;33686;48.770;9.186;2022-07-06T04:58:09;21.60;94.50
47921;DHT22;33686;48.770;9.186;2022-07-06T05:00:36;21.20;94.90
47921;DHT22;33686;48.770;9.186;2022-07-06T05:03:01;21.30;94.70
47921;DHT22;33686;48.770;9.186;2022-07-06T05:05:27;21.20;95.30
47921;DHT22;33686;48.770;9.186;2022-07-06T05:07:53;22.10;94.00
47921;DHT22;33686;48.770;9.186;2022-07-06T05:10:19;21.70;94.00
47921;DHT22;33686;48.770;9.186;2022-07-06T05:12:48;21.80;94.20
47921;DHT22;33686;48.770;9.186;2022-07-06T05:15:15;21.00;95.20
47921;DHT22;33686;48.770;9.186;2022-07-06T05:17:40;21.80;94.40
47921;DHT22;33686;48.770;9.186;2022-07-06T05:20:07;21.40;94.50
47921;DHT22;33686;48.770;9.186;2022-07-06T05:22:36;21.90;94.30
47921;DHT22;33686;48.770;9.186;2022-07-06T05:25:01;21.40;95.00
47921;DHT22;33686;48.770;9.186;2022-07-06T05:27:28;22.50;93.80
47921;DHT22;33686;48.770;9.186;2022-07-06T05:29:54;22.60;93.40
47921;DHT22;33686;48.770;9.186;2022-07-06T05:32:19;22.80;93.20
47921;DHT22;33686;48.770;9.186;2022-07-06T05:34:45;22.90;93.00
47921;DHT22;33686;48.770;9.186;2022-07-06T05:37:11;23.40;92.50
47921;DHT22;33686;48.770;9.186;2022-07-06T05:39:38;23.30;92.60
47921;DHT22;33686;48.770;9.186;2022-07-06T05:42:04;23.30;92.50
47921;DHT22;33686;48.770;9.186;2022-07-06T05:44:31;23.40;92.30
47921;DHT22;33686;48.770;9.186;2022-07-06T05:46:57;23.50;92.00
47921;DHT22;33686;48.770;9.186;2022-07-06T05:49:44;22.90;92.90
47921;DHT22;33686;48.770;9.186;2022-07-06T05:52:29;21.60;93.70
47921;DHT22;33686;48.770;9.186;2022-07-06T05:54:55;22.10;93.90
47921;DHT22;33686;48.770;9.186;2022-07-06T05:57:21;23.00;92.70
47921;DHT22;33686;48.770;9.186;2022-07-06T05:59:46;23.40;92.30
47921;DHT22;33686;48.770;9.186;2022-07-06T06:02:12;24.00;91.80
47921;DHT22;33686;48.770;9.186;2022-07-06T06:04:39;24.00;91.40
47921;DHT22;33686;48.770;9.186;2022-07-06T06:07:05;24.40;91.20
47921;DHT22;33686;48.770;9.186;2022-07-06T06:09:30;23.70;91.50
47921;DHT22;33686;48.770;9.186;2022-07-06T06:11:56;22.60;92.60
47921;DHT22;33686;48.770;9.186;2022-07-06T06:14:23;22.90;92.90
47921;DHT22;33686;48.770;9.186;2022-07-06T06:16:48;23.20;92.10
47921;DHT22;33686;48.770;9.186;2022-07-06T06:19:14;22.70;92.80
47921;DHT22;33686;48.770;9.186;2022-07-06T06:21:40;23.40;92.00
47921;DHT22;33686;48.770;9.186;2022-07-06T06:24:06;22.20;93.10
47921;DHT22;33686;48.770;9.186;2022-07-06T06:26:31;23.90;91.70
47921;DHT22;33686;48.770;9.186;2022-07-06T06:28:57;24.10;91.30
47921;DHT22;33686;48.770;9.186;2022-07-06T06:31:22;23.70;91.50
47921;DHT22;33686;48.770;9.186;2022-07-06T06:33:48;24.90;90.80
47921;DHT22;33686;48.770;9.186;2022-07-06T06:36:13;25.40;89.90
47921;DHT22;33686;48.770;9.186;2022-07-06T06:38:39;24.30;90.60
47921;DHT22;33686;48.770;9.186;2022-07-06T06:41:05;23.50;91.40
47921;DHT22;33686;48.770;9.186;2022-07-06T06:43:30;22.90;92.10
47921;DHT22;33686;48.770;9.186;2022-07-06T06:46:22;22.10;93.00
47921;DHT22;33686;48.770;9.186;2022-07-06T06:48:48;21.40;93.90
47921;DHT22;33686;48.770;9.186;2022-07-06T06:51:13;21.50;93.90
47921;DHT22;33686;48.770;9.186;2022-07-06T06:53:39;21.20;94.70
47921;DHT22;33686;48.770;9.186;2022-07-06T06:56:04;21.20;94.90
47921;DHT22;33686;48.770;9.186;2022-07-06T06:58:30;22.80;93.20
47921;DHT22;33686;48.770;9.186;2022-07-06T07:00:55;24.00;91.50
47921;DHT22;33686;48.770;9.186;2022-07-06T07:03:21;25.20;90.10
47921;DHT22;33686;48.770;9.186;2022-07-06T07:05:47;25.00;90.50
47921;DHT22;33686;48.770;9.186;2022-07-06T07:08:13;25.80;89.30
47921;DHT22;33686;48.770;9.186;2022-07-06T07:10:39;25.80;88.90
47921;DHT22;33686;48.770;9.186;2022-07-06T07:13:04;24.80;89.20
47921;DHT22;33686;48.770;9.186;2022-07-06T07:15:30;24.50;90.10
47921;DHT22;33686;48.770;9.186;2022-07-06T07:17:56;25.20;89.50
47921;DHT22;33686;48.770;9.186;2022-07-06T07:20:21;25.90;88.50
47921;DHT22;33686;48.770;9.186;2022-07-06T07:22:47;26.00;87.80
47921;DHT22;33686;48.770;9.186;2022-07-06T07:25:12;26.50;87.20
47921;DHT22;33686;48.770;9.186;2022-07-06T07:27:38;26.80;86.20
47921;DHT22;33686;48.770;9.186;2022-07-06T07:30:04;26.10;86.60
47921;DHT22;33686;48.770;9.186;2022-07-06T07:32:29;26.50;86.00
47921;DHT22;33686;48.770;9.186;2022-07-06T07:34:55;26.40;85.50
47921;DHT22;33686;48.770;9.186;2022-07-06T07:37:20;26.90;84.60
47921;DHT22;33686;48.770;9.186;2022-07-06T07:39:46;26.90;85.70
47921;DHT22;33686;48.770;9.186;2022-07-06T07:42:11;26.10;86.40
47921;DHT22;33686;48.770;9.186;2022-07-06T07:44:37;25.80;85.60
47921;DHT22;33686;48.770;9.186;2022-07-06T07:47:04;26.10;85.60
47921;DHT22;33686;48.770;9.186;2022-07-06T07:49:30;25.50;86.70
47921;DHT22;33686;48.770;9.186;2022-07-06T07:51:55;25.30;87.80
47921;DHT22;33686;48.770;9.186;2022-07-06T07:54:21;25.90;86.80
47921;DHT22;33686;48.770;9.186;2022-07-06T07:56:46;25.90;86.40
47921;DHT22;33686;48.770;9.186;2022-07-06T07:59:12;26.10;85.50
47921;DHT22;33686;48.770;9.186;2022-07-06T08:01:39;25.50;86.80
47921;DHT22;33686;48.770;9.186;2022-07-06T08:04:05;26.20;85.20
47921;DHT22;33686;48.770;9.186;2022-07-06T08:06:30;25.60;86.30
47921;DHT22;33686;48.770;9.186;2022-07-06T08:08:56;26.60;84.30
47921;DHT22;33686;48.770;9.186;2022-07-06T08:11:21;27.20;84.30
47921;DHT22;33686;48.770;9.186;2022-07-06T08:13:47;26.50;85.20
47921;DHT22;33686;48.770;9.186;2022-07-06T08:16:13;26.70;83.90
47921;DHT22;33686;48.770;9.186;2022-07-06T08:18:38;27.10;84.20
47921;DHT22;33686;48.770;9.186;2022-07-06T08:21:04;26.40;85.60
47921;DHT22;33686;48.770;9.186;2022-07-06T08:23:30;26.00;86.90
47921;DHT22;33686;48.770;9.186;2022-07-06T08:25:56;27.00;85.50
47921;DHT22;33686;48.770;9.186;2022-07-06T08:28:22;25.80;87.10
47921;DHT22;33686;48.770;9.186;2022-07-06T08:30:47;25.80;87.10
47921;DHT22;33686;48.770;9.186;2022-07-06T08:33:13;24.70;88.90
47921;DHT22;33686;48.770;9.186;2022-07-06T08:35:39;25.30;88.10
47921;DHT22;33686;48.770;9.186;2022-07-06T08:38:04;25.70;87.40
47921;DHT22;33686;48.770;9.186;2022-07-06T08:40:31;25.40;88.70
47921;DHT22;33686;48.770;9.186;2022-07-06T08:42:57;26.80;86.30
47921;DHT22;33686;48.770;9.186;2022-07-06T08:45:24;27.30;85.20
47921;DHT22;33686;48.770;9.186;2022-07-06T08:47:50;27.80;84.80
47921;DHT22;33686;48.770;9.186;2022-07-06T08:50:16;27.80;85.30
47921;DHT22;33686;48.770;9.186;2022-07-06T08:52:41;28.40;83.90
47921;DHT22;33686;48.770;9.186;2022-07-06T08:55:08;28.30;83.70
47921;DHT22;33686;48.770;9.186;2022-07-06T08:57:34;28.30;83.70
47921;DHT22;33686;48.770;9.186;2022-07-06T08:59:59;27.10;84.60
47921;DHT22;33686;48.770;9.186;2022-07-06T09:02:25;27.10;85.50
47921;DHT22;33686;48.770;9.186;2022-07-06T09:04:56;27.40;84.40
47921;DHT22;33686;48.770;9.186;2022-07-06T09:07:28;27.80;84.20
47921;DHT22;33686;48.770;9.186;2022-07-06T09:09:54;27.20;85.00
47921;DHT22;33686;48.770;9.186;2022-07-06T09:12:20;26.10;86.80
47921;DHT22;33686;48.770;9.186;2022-07-06T09:14:46;26.50;86.70
47921;DHT22;33686;48.770;9.186;2022-07-06T09:17:12;26.50;85.90
47921;DHT22;33686;48.770;9.186;2022-07-06T09:19:38;26.80;85.30
47921;DHT22;33686;48.770;9.186;2022-07-06T09:22:03;26.60;85.90
47921;DHT22;33686;48.770;9.186;2022-07-06T09:24:29;27.40;84.60
47921;DHT22;33686;48.770;9.186;2022-07-06T09:26:57;27.30;84.40
47921;DHT22;33686;48.770;9.186;2022-07-06T09:29:32;27.30;84.80
47921;DHT22;33686;48.770;9.186;2022-07-06T09:32:01;27.40;83.60
47921;DHT22;33686;48.770;9.186;2022-07-06T09:34:46;26.40;85.00
47921;DHT22;33686;48.770;9.186;2022-07-06T09:37:12;26.70;84.90
47921;DHT22;33686;48.770;9.186;2022-07-06T09:39:38;27.40;84.00
47921;DHT22;33686;48.770;9.186;2022-07-06T09:42:04;27.40;84.20
47921;DHT22;33686;48.770;9.186;2022-07-06T09:44:32;27.80;84.10
47921;DHT22;33686;48.770;9.186;2022-07-06T09:46:59;26.80;84.20
47921;DHT22;33686;48.770;9.186;2022-07-06T09:49:25;27.00;84.60
47921;DHT22;33686;48.770;9.186;2022-07-06T09:51:52;26.50;84.70
47921;DHT22;33686;48.770;9.186;2022-07-06T09:54:18;26.50;84.80
47921;DHT22;33686;48.770;9.186;2022-07-06T09:56:44;26.30;84.60
47921;DHT22;33686;48.770;9.186;2022-07-06T09:59:13;25.10;86.90
47921;DHT22;33686;48.770;9.186;2022-07-06T10:01:40;25.10;87.30
47921;DHT22;33686;48.770;9.186;2022-07-06T10:04:06;25.80;86.50
47921;DHT22;33686;48.770;9.186;2022-07-06T10:06:32;26.70;85.20
47921;DHT22;33686;48.770;9.186;2022-07-06T10:08:58;27.00;84.10
47921;DHT22;33686;48.770;9.186;2022-07-06T10:11:24;27.00;84.00
47921;DHT22;33686;48.770;9.186;2022-07-06T10:13:50;27.50;83.40
47921;DHT22;33686;48.770;9.186;2022-07-06T10:16:19;27.00;83.60
47921;DHT22;33686;48.770;9.186;2022-07-06T10:18:45;26.60;84.00
47921;DHT22;33686;48.770;9.186;2022-07-06T10:21:11;26.10;85.90
47921;DHT22;33686;48.770;9.186;2022-07-06T10:23:36;26.00;86.20
47921;DHT22;33686;48.770;9.186;2022-07-06T10:26:02;26.30;85.70
47921;DHT22;33686;48.770;9.186;2022-07-06T10:28:29;25.90;85.90
47921;DHT22;33686;48.770;9.186;2022-07-06T10:30:55;25.00;87.90
47921;DHT22;33686;48.770;9.186;2022-07-06T10:33:21;24.60;89.10
47921;DHT22;33686;48.770;9.186;2022-07-06T10:35:47;24.20;90.00
47921;DHT22;33686;48.770;9.186;2022-07-06T10:38:14;23.90;90.20
47921;DHT22;33686;48.770;9.186;2022-07-06T10:40:40;24.00;90.40
47921;DHT22;33686;48.770;9.186;2022-07-06T10:43:33;24.40;90.20
47921;DHT22;33686;48.770;9.186;2022-07-06T10:45:59;24.50;89.90
47921;DHT22;33686;48.770;9.186;2022-07-06T10:48:40;24.60;90.00
47921;DHT22;33686;48.770;9.186;2022-07-06T10:51:06;23.90;90.50
47921;DHT22;33686;48.770;9.186;2022-07-06T10:53:32;23.90;90.60
47921;DHT22;33686;48.770;9.186;2022-07-06T10:55:59;23.40;90.70
47921;DHT22;33686;48.770;9.186;2022-07-06T11:01:04;23.40;90.90
47921;DHT22;33686;48.770;9.186;2022-07-06T11:06:39;23.00;91.40
47921;DHT22;33686;48.770;9.186;2022-07-06T11:11:12;23.30;91.30
47921;DHT22;33686;48.770;9.186;2022-07-06T11:13:51;23.60;91.10
47921;DHT22;33686;48.770;9.186;2022-07-06T11:16:17;23.90;91.00
47921;DHT22;33686;48.770;9.186;2022-07-06T11:18:47;23.60;90.90
47921;DHT22;33686;48.770;9.186;2022-07-06T11:21:17;24.00;90.70
47921;DHT22;33686;48.770;9.186;2022-07-06T11:23:44;23.60;90.80
47921;DHT22;33686;48.770;9.186;2022-07-06T11:26:10;23.10;91.50
47921;DHT22;33686;48.770;9.186;2022-07-06T11:28:37;22.60;92.00
47921;DHT22;33686;48.770;9.186;2022-07-06T11:31:03;22.10;92.50
47921;DHT22;33686;48.770;9.186;2022-07-06T11:33:29;22.20;92.30
47921;DHT22;33686;48.770;9.186;2022-07-06T11:36:11;23.30;91.90
47921;DHT22;33686;48.770;9.186;2022-07-06T11:38:36;23.70;91.00
47921;DHT22;33686;48.770;9.186;2022-07-06T11:41:02;23.90;90.90
47921;DHT22;33686;48.770;9.186;2022-07-06T11:43:27;23.50;91.20
47921;DHT22;33686;48.770;9.186;2022-07-06T11:45:53;22.90;91.80
47921;DHT22;33686;48.770;9.186;2022-07-06T11:48:18;22.70;92.20
47921;DHT22;33686;48.770;9.186;2022-07-06T11:50:56;23.10;91.90
47921;DHT22;33686;48.770;9.186;2022-07-06T11:53:21;23.70;91.20
47921;DHT22;33686;48.770;9.186;2022-07-06T11:55:47;23.70;91.10
47921;DHT22;33686;48.770;9.186;2022-07-06T11:58:12;23.90;91.00
47921;DHT22;33686;48.770;9.186;2022-07-06T12:00:39;23.60;91.20
47921;DHT22;33686;48.770;9.186;2022-07-06T12:03:04;23.60;91.40
47921;DHT22;33686;48.770;9.186;2022-07-06T12:05:30;23.20;91.60
47921;DHT22;33686;48.770;9.186;2022-07-06T12:08:05;23.40;91.50
47921;DHT22;33686;48.770;9.186;2022-07-06T12:10:34;23.80;91.10
47921;DHT22;33686;48.770;9.186;2022-07-06T12:13:03;23.50;91.20
47921;DHT22;33686;48.770;9.186;2022-07-06T12:15:29;23.20;91.70
47921;DHT22;33686;48.770;9.186;2022-07-06T12:17:54;23.60;91.30
47921;DHT22;33686;48.770;9.186;2022-07-06T12:20:20;23.60;91.30
47921;DHT22;33686;48.770;9.186;2022-07-06T12:22:46;24.00;90.90
47921;DHT22;33686;48.770;9.186;2022-07-06T12:25:11;24.00;91.10
47921;DHT22;33686;48.770;9.186;2022-07-06T12:27:37;24.20;90.80
47921;DHT22;33686;48.770;9.186;2022-07-06T12:30:09;23.50;91.30
47921;DHT22;33686;48.770;9.186;2022-07-06T12:32:35;23.10;91.80
47921;DHT22;33686;48.770;9.186;2022-07-06T12:35:08;23.30;91.50
47921;DHT22;33686;48.770;9.186;2022-07-06T12:37:34;23.30;91.20
47921;DHT22;33686;48.770;9.186;2022-07-06T12:40:00;23.20;91.60
47921;DHT22;33686;48.770;9.186;2022-07-06T12:42:26;23.30;91.40
47921;DHT22;33686;48.770;9.186;2022-07-06T12:44:52;23.50;91.10
47921;DHT22;33686;48.770;9.186;2022-07-06T12:47:24;23.90;90.90
47921;DHT22;33686;48.770;9.186;2022-07-06T12:50:08;24.70;90.40
47921;DHT22;33686;48.770;9.186;2022-07-06T12:52:35;24.60;89.80
47921;DHT22;33686;48.770;9.186;2022-07-06T12:55:02;24.30;90.20
47921;DHT22;33686;48.770;9.186;2022-07-06T12:57:27;24.40;90.30
47921;DHT22;33686;48.770;9.186;2022-07-06T13:00:07;24.40;89.90
47921;DHT22;33686;48.770;9.186;2022-07-06T13:02:33;24.70;89.40
47921;DHT22;33686;48.770;9.186;2022-07-06T13:05:01;24.00;90.30
47921;DHT22;33686;48.770;9.186;2022-07-06T13:07:27;23.70;90.30
47921;DHT22;33686;48.770;9.186;2022-07-06T13:09:54;23.50;90.90
47921;DHT22;33686;48.770;9.186;2022-07-06T13:12:20;23.50;90.60
47921;DHT22;33686;48.770;9.186;2022-07-06T13:14:45;23.60;90.50
47921;DHT22;33686;48.770;9.186;2022-07-06T13:17:11;23.80;90.20
47921;DHT22;33686;48.770;9.186;2022-07-06T13:19:36;24.00;90.10
47921;DHT22;33686;48.770;9.186;2022-07-06T13:22:02;24.00;90.10
47921;DHT22;33686;48.770;9.186;2022-07-06T13:24:28;23.90;90.10
47921;DHT22;33686;48.770;9.186;2022-07-06T13:26:54;24.20;90.20
47921;DHT22;33686;48.770;9.186;2022-07-06T13:29:19;24.20;90.00
47921;DHT22;33686;48.770;9.186;2022-07-06T13:31:45;24.20;89.80
47921;DHT22;33686;48.770;9.186;2022-07-06T13:34:10;23.80;90.30
47921;DHT22;33686;48.770;9.186;2022-07-06T13:36:38;23.40;90.70
47921;DHT22;33686;48.770;9.186;2022-07-06T13:39:04;23.30;90.50
47921;DHT22;33686;48.770;9.186;2022-07-06T13:41:30;23.10;90.90
47921;DHT22;33686;48.770;9.186;2022-07-06T13:43:55;23.40;90.70
47921;DHT22;33686;48.770;9.186;2022-07-06T13:46:21;23.20;90.80
47921;DHT22;33686;48.770;9.186;2022-07-06T13:48:47;22.70;91.00
47921;DHT22;33686;48.770;9.186;2022-07-06T13:51:13;22.50;91.30
47921;DHT22;33686;48.770;9.186;2022-07-06T13:53:38;23.30;90.70
47921;DHT22;33686;48.770;9.186;2022-07-06T13:56:04;23.40;90.80
47921;DHT22;33686;48.770;9.186;2022-07-06T13:58:30;23.80;90.40
47921;DHT22;33686;48.770;9.186;2022-07-06T14:00:56;23.80;89.90
47921;DHT22;33686;48.770;9.186;2022-07-06T14:03:21;23.40;90.20
47921;DHT22;33686;48.770;9.186;2022-07-06T14:05:53;23.30;90.30
47921;DHT22;33686;48.770;9.186;2022-07-06T14:08:18;23.30;90.20
47921;DHT22;33686;48.770;9.186;2022-07-06T14:10:44;22.70;90.60
47921;DHT22;33686;48.770;9.186;2022-07-06T14:13:09;23.40;90.50
47921;DHT22;33686;48.770;9.186;2022-07-06T14:15:35;24.10;89.30
47921;DHT22;33686;48.770;9.186;2022-07-06T14:18:01;24.10;89.10
47921;DHT22;33686;48.770;9.186;2022-07-06T14:20:26;23.80;89.20
47921;DHT22;33686;48.770;9.186;2022-07-06T14:22:52;24.20;88.90
47921;DHT22;33686;48.770;9.186;2022-07-06T14:25:17;24.30;88.20
47921;DHT22;33686;48.770;9.186;2022-07-06T14:27:43;24.20;88.30
47921;DHT22;33686;48.770;9.186;2022-07-06T14:30:09;24.10;87.90
47921;DHT22;33686;48.770;9.186;2022-07-06T14:32:35;23.60;88.90
47921;DHT22;33686;48.770;9.186;2022-07-06T14:35:00;23.60;89.10
47921;DHT22;33686;48.770;9.186;2022-07-06T14:37:26;23.20;89.60
47921;DHT22;33686;48.770;9.186;2022-07-06T14:39:51;23.20;90.00
47921;DHT22;33686;48.770;9.186;2022-07-06T14:42:17;23.80;89.20
47921;DHT22;33686;48.770;9.186;2022-07-06T14:44:43;24.00;88.80
47921;DHT22;33686;48.770;9.186;2022-07-06T14:47:08;24.30;88.10
47921;DHT22;33686;48.770;9.186;2022-07-06T14:49:34;24.10;88.30
47921;DHT22;33686;48.770;9.186;2022-07-06T14:51:59;24.10;88.60
47921;DHT22;33686;48.770;9.186;2022-07-06T14:54:25;23.80;88.90
47921;DHT22;33686;48.770;9.186;2022-07-06T14:56:51;24.10;87.90
47921;DHT22;33686;48.770;9.186;2022-07-06T14:59:16;24.30;87.70
47921;DHT22;33686;48.770;9.186;2022-07-06T15:01:42;24.20;87.50
47921;DHT22;33686;48.770;9.186;2022-07-06T15:04:08;23.60;88.40
47921;DHT22;33686;48.770;9.186;2022-07-06T15:06:34;23.70;88.20
47921;DHT22;33686;48.770;9.186;2022-07-06T15:08:59;23.90;88.20
47921;DHT22;33686;48.770;9.186;2022-07-06T15:11:29;23.60;88.40
47921;DHT22;33686;48.770;9.186;2022-07-06T15:13:55;23.90;88.40
47921;DHT22;33686;48.770;9.186;2022-07-06T15:16:20;23.40;88.80
47921;DHT22;33686;48.770;9.186;2022-07-06T15:18:46;23.30;89.00
47921;DHT22;33686;48.770;9.186;2022-07-06T15:21:12;23.10;89.50
47921;DHT22;33686;48.770;9.186;2022-07-06T15:23:37;23.30;89.00
47921;DHT22;33686;48.770;9.186;2022-07-06T15:26:03;22.80;89.00
47921;DHT22;33686;48.770;9.186;2022-07-06T15:28:29;22.90;89.10
47921;DHT22;33686;48.770;9.186;2022-07-06T15:30:54;23.40;88.40
47921;DHT22;33686;48.770;9.186;2022-07-06T15:33:20;23.50;87.80
47921;DHT22;33686;48.770;9.186;2022-07-06T15:35:46;23.40;88.20
47921;DHT22;33686;48.770;9.186;2022-07-06T15:38:12;22.90;88.70
47921;DHT22;33686;48.770;9.186;2022-07-06T15:40:38;22.70;89.30
47921;DHT22;33686;48.770;9.186;2022-07-06T15:43:06;23.10;88.70
47921;DHT22;33686;48.770;9.186;2022-07-06T15:45:32;23.30;88.00
47921;DHT22;33686;48.770;9.186;2022-07-06T15:47:57;23.20;88.30
47921;DHT22;33686;48.770;9.186;2022-07-06T15:50:23;23.00;88.30
47921;DHT22;33686;48.770;9.186;2022-07-06T15:52:48;23.10;87.90
47921;DHT22;33686;48.770;9.186;2022-07-06T15:55:14;22.90;88.50
47921;DHT22;33686;48.770;9.186;2022-07-06T15:57:40;23.10;88.10
47921;DHT22;33686;48.770;9.186;2022-07-06T16:00:05;23.00;88.30
47921;DHT22;33686;48.770;9.186;2022-07-06T16:02:37;22.90;88.20
47921;DHT22;33686;48.770;9.186;2022-07-06T16:05:03;22.80;88.10
47921;DHT22;33686;48.770;9.186;2022-07-06T16:07:28;23.10;87.50
47921;DHT22;33686;48.770;9.186;2022-07-06T16:09:54;23.00;87.40
47921;DHT22;33686;48.770;9.186;2022-07-06T16:12:19;22.70;88.40
47921;DHT22;33686;48.770;9.186;2022-07-06T16:14:45;22.80;88.00
47921;DHT22;33686;48.770;9.186;2022-07-06T16:17:10;22.90;87.40
47921;DHT22;33686;48.770;9.186;2022-07-06T16:19:36;23.10;88.00
47921;DHT22;33686;48.770;9.186;2022-07-06T16:22:01;22.50;88.30
47921;DHT22;33686;48.770;9.186;2022-07-06T16:24:27;22.50;88.20
47921;DHT22;33686;48.770;9.186;2022-07-06T16:26:53;22.40;87.60
47921;DHT22;33686;48.770;9.186;2022-07-06T16:29:18;22.40;87.70
47921;DHT22;33686;48.770;9.186;2022-07-06T16:31:44;22.70;87.00
47921;DHT22;33686;48.770;9.186;2022-07-06T16:34:09;22.80;86.70
47921;DHT22;33686;48.770;9.186;2022-07-06T16:36:35;22.90;86.90
47921;DHT22;33686;48.770;9.186;2022-07-06T16:39:01;23.20;86.20
47921;DHT22;33686;48.770;9.186;2022-07-06T16:41:26;23.00;86.40
47921;DHT22;33686;48.770;9.186;2022-07-06T16:43:52;23.40;85.40
47921;DHT22;33686;48.770;9.186;2022-07-06T16:46:18;23.20;85.50
47921;DHT22;33686;48.770;9.186;2022-07-06T16:48:43;23.00;85.70
47921;DHT22;33686;48.770;9.186;2022-07-06T16:51:09;23.00;85.70
47921;DHT22;33686;48.770;9.186;2022-07-06T16:53:34;23.10;85.50
47921;DHT22;33686;48.770;9.186;2022-07-06T16:56:00;23.10;85.10
47921;DHT22;33686;48.770;9.186;2022-07-06T16:58:27;22.70;85.40
47921;DHT22;33686;48.770;9.186;2022-07-06T17:00:53;22.50;85.40
47921;DHT22;33686;48.770;9.186;2022-07-06T17:03:19;22.50;84.80
47921;DHT22;33686;48.770;9.186;2022-07-06T17:05:44;22.30;84.80
47921;DHT22;33686;48.770;9.186;2022-07-06T17:08:10;22.30;84.50
47921;DHT22;33686;48.770;9.186;2022-07-06T17:10:35;22.20;84.80
47921;DHT22;33686;48.770;9.186;2022-07-06T17:13:01;22.20;84.30
47921;DHT22;33686;48.770;9.186;2022-07-06T17:15:27;22.20;84.10
47921;DHT22;33686;48.770;9.186;2022-07-06T17:17:54;22.20;84.20
47921;DHT22;33686;48.770;9.186;2022-07-06T17:20:20;22.00;84.20
47921;DHT22;33686;48.770;9.186;2022-07-06T17:22:45;21.90;84.10
47921;DHT22;33686;48.770;9.186;2022-07-06T17:25:11;21.90;84.10
47921;DHT22;33686;48.770;9.186;2022-07-06T17:27:36;22.00;84.00
47921;DHT22;33686;48.770;9.186;2022-07-06T17:30:02;21.90;84.30
47921;DHT22;33686;48.770;9.186;2022-07-06T17:32:28;21.80;84.20
47921;DHT22;33686;48.770;9.186;2022-07-06T17:34:53;21.80;84.20
47921;DHT22;33686;48.770;9.186;2022-07-06T17:37:19;22.00;84.20
47921;DHT22;33686;48.770;9.186;2022-07-06T17:39:44;22.00;83.60
47921;DHT22;33686;48.770;9.186;2022-07-06T17:42:11;21.90;84.50
47921;DHT22;33686;48.770;9.186;2022-07-06T17:44:39;21.90;84.20
47921;DHT22;33686;48.770;9.186;2022-07-06T17:47:04;21.80;84.50
47921;DHT22;33686;48.770;9.186;2022-07-06T17:49:30;21.80;84.30
47921;DHT22;33686;48.770;9.186;2022-07-06T17:51:57;21.70;84.30
47921;DHT22;33686;48.770;9.186;2022-07-06T17:54:23;21.80;84.20
47921;DHT22;33686;48.770;9.186;2022-07-06T17:56:49;21.70;84.10
47921;DHT22;33686;48.770;9.186;2022-07-06T17:59:14;21.50;84.50
47921;DHT22;33686;48.770;9.186;2022-07-06T18:01:40;21.40;84.30
47921;DHT22;33686;48.770;9.186;2022-07-06T18:04:05;21.40;84.40
47921;DHT22;33686;48.770;9.186;2022-07-06T18:06:31;21.20;84.50
47921;DHT22;33686;48.770;9.186;2022-07-06T18:08:56;21.00;84.70
47921;DHT22;33686;48.770;9.186;2022-07-06T18:11:22;21.00;84.90
47921;DHT22;33686;48.770;9.186;2022-07-06T18:13:47;21.00;85.10
47921;DHT22;33686;48.770;9.186;2022-07-06T18:16:13;21.10;84.90
47921;DHT22;33686;48.770;9.186;2022-07-06T18:18:39;21.00;85.00
47921;DHT22;33686;48.770;9.186;2022-07-06T18:21:04;21.00;84.60
47921;DHT22;33686;48.770;9.186;2022-07-06T18:23:30;21.10;84.60
47921;DHT22;33686;48.770;9.186;2022-07-06T18:25:55;20.90;84.60
47921;DHT22;33686;48.770;9.186;2022-07-06T18:28:22;20.80;84.80
47921;DHT22;33686;48.770;9.186;2022-07-06T18:30:48;20.80;84.80
47921;DHT22;33686;48.770;9.186;2022-07-06T18:33:15;20.90;84.90
47921;DHT22;33686;48.770;9.186;2022-07-06T18:35:41;20.80;84.80
47921;DHT22;33686;48.770;9.186;2022-07-06T18:38:07;20.90;84.20
47921;DHT22;33686;48.770;9.186;2022-07-06T18:40:33;20.90;84.30
47921;DHT22;33686;48.770;9.186;2022-07-06T18:43:01;21.00;84.10
47921;DHT22;33686;48.770;9.186;2022-07-06T18:45:26;20.90;84.40
47921;DHT22;33686;48.770;9.186;2022-07-06T18:47:53;20.90;84.60
47921;DHT22;33686;48.770;9.186;2022-07-06T18:50:19;21.00;84.40
47921;DHT22;33686;48.770;9.186;2022-07-06T18:52:44;21.10;84.00
47921;DHT22;33686;48.770;9.186;2022-07-06T18:55:10;20.80;84.60
47921;DHT22;33686;48.770;9.186;2022-07-06T18:57:36;20.80;84.80
47921;DHT22;33686;48.770;9.186;2022-07-06T19:00:01;20.70;85.10
47921;DHT22;33686;48.770;9.186;2022-07-06T19:02:27;20.50;85.40
47921;DHT22;33686;48.770;9.186;2022-07-06T19:04:53;20.40;85.70
47921;DHT22;33686;48.770;9.186;2022-07-06T19:07:18;20.40;85.90
47921;DHT22;33686;48.770;9.186;2022-07-06T19:09:44;20.40;86.00
47921;DHT22;33686;48.770;9.186;2022-07-06T19:12:10;20.30;86.30
47921;DHT22;33686;48.770;9.186;2022-07-06T19:14:35;20.30;86.60
47921;DHT22;33686;48.770;9.186;2022-07-06T19:17:01;20.20;86.90
47921;DHT22;33686;48.770;9.186;2022-07-06T19:19:27;20.10;87.40
47921;DHT22;33686;48.770;9.186;2022-07-06T19:21:52;20.10;87.40
47921;DHT22;33686;48.770;9.186;2022-07-06T19:24:18;20.10;87.80
47921;DHT22;33686;48.770;9.186;2022-07-06T19:26:44;20.10;87.90
47921;DHT22;33686;48.770;9.186;2022-07-06T19:29:10;19.90;88.40
47921;DHT22;33686;48.770;9.186;2022-07-06T19:31:35;20.00;88.40
47921;DHT22;33686;48.770;9.186;2022-07-06T19:34:03;19.90;88.60
47921;DHT22;33686;48.770;9.186;2022-07-06T19:36:28;19.90;89.10
47921;DHT22;33686;48.770;9.186;2022-07-06T19:38:54;19.90;89.00
47921;DHT22;33686;48.770;9.186;2022-07-06T19:41:19;19.80;89.30
47921;DHT22;33686;48.770;9.186;2022-07-06T19:43:47;19.80;89.40
47921;DHT22;33686;48.770;9.186;2022-07-06T19:46:13;19.70;89.30